Time;durP1;ratioP1;P1;durP2;ratioP2;P2;SDS_P1;SDS_P2;PMS_P1;PMS_P2;Temp;Humidity;BMP_temperature;BMP_pressure;BME280_temperature;BME280_humidity;BME280_pressure;Samples;Min_cycle;Max_cycle;Signal;HPM_P1;HPM_P2
2023/11/09 00:00:40;;;;;;;7.43;0.55;;;8.50;99.90;;;;;;5030332;28;20029;-74
2023/11/09 00:03:07;;;;;;;2.25;1.10;;;8.60;99.90;;;;;;5051732;28;20029;-73
2023/11/09 00:05:33;;;;;;;2.33;0.70;;;8.60;99.90;;;;;;5032229;28;20124;-73
2023/11/09 00:07:59;;;;;;;1.58;1.48;;;8.70;99.90;;;;;;5030534;28;20423;-74
2023/11/09 00:10:26;;;;;;;0.45;0.25;;;8.70;99.90;;;;;;5028089;28;20382;-75
2023/11/09 00:12:53;;;;;;;6.90;1.00;;;8.80;99.90;;;;;;5030321;28;20112;-74
2023/11/09 00:15:20;;;;;;;1.60;0.47;;;8.70;99.90;;;;;;5028002;28;20040;-75
2023/11/09 00:17:47;;;;;;;2.20;0.90;;;8.70;99.90;;;;;;5032944;28;20021;-73
2023/11/09 00:20:12;;;;;;;1.30;1.20;;;8.70;99.90;;;;;;5049896;28;20541;-73
2023/11/09 00:22:39;;;;;;;1.00;0.90;;;8.60;99.90;;;;;;5050789;28;20151;-72
2023/11/09 00:25:06;;;;;;;0.32;0.25;;;8.60;99.90;;;;;;5031787;28;20030;-75
2023/11/09 00:27:33;;;;;;;0.47;0.47;;;8.50;99.90;;;;;;5036608;28;20040;-73
2023/11/09 00:30:01;;;;;;;1.42;0.80;;;8.50;99.90;;;;;;5051562;28;20060;-73
2023/11/09 00:32:27;;;;;;;2.10;1.95;;;8.40;99.90;;;;;;5049586;28;20037;-73
2023/11/09 00:34:53;;;;;;;0.45;0.40;;;8.40;99.90;;;;;;5054100;28;20051;-74
2023/11/09 00:37:22;;;;;;;0.45;0.45;;;8.30;99.90;;;;;;5036355;28;20078;-75
2023/11/09 00:39:47;;;;;;;0.55;0.45;;;8.30;99.90;;;;;;5053479;28;20404;-74
2023/11/09 00:42:15;;;;;;;1.27;0.63;;;8.30;99.90;;;;;;5036625;28;20020;-74
2023/11/09 00:44:41;;;;;;;0.65;0.57;;;8.20;99.90;;;;;;5053803;28;20055;-73
2023/11/09 00:47:07;;;;;;;0.68;0.47;;;8.10;99.90;;;;;;5052218;28;20131;-73
2023/11/09 00:49:33;;;;;;;0.35;0.30;;;8.10;99.90;;;;;;5033507;28;20448;-75
2023/11/09 00:51:59;;;;;;;2.50;0.55;;;8.10;99.90;;;;;;5021185;28;20109;-73
2023/11/09 00:54:25;;;;;;;2.47;1.20;;;8.00;99.90;;;;;;5054387;28;20039;-73
2023/11/09 00:56:51;;;;;;;0.95;0.70;;;7.90;99.90;;;;;;5035362;28;20147;-74
2023/11/09 00:59:17;;;;;;;0.50;0.50;;;7.90;99.90;;;;;;5033045;28;20483;-73
2023/11/09 01:01:42;;;;;;;4.82;1.02;;;7.80;99.90;;;;;;5017140;28;20040;-73
2023/11/09 01:04:08;;;;;;;0.47;0.30;;;7.80;99.90;;;;;;5053682;28;20029;-73
2023/11/09 01:06:34;;;;;;;0.50;0.50;;;7.80;99.90;;;;;;5045723;28;20094;-73
2023/11/09 01:08:59;;;;;;;0.30;0.30;;;7.80;99.90;;;;;;5053999;28;20029;-73
2023/11/09 01:11:26;;;;;;;1.83;0.90;;;7.80;99.90;;;;;;5052851;28;20033;-75
2023/11/09 01:13:52;;;;;;;0.28;0.28;;;7.80;99.90;;;;;;5035607;28;20030;-74
2023/11/09 01:16:21;;;;;;;1.35;0.77;;;7.80;99.90;;;;;;5035354;28;20511;-73
2023/11/09 01:18:48;;;;;;;2.85;1.10;;;7.80;99.90;;;;;;5036186;28;20382;-74
2023/11/09 01:21:14;;;;;;;1.10;0.80;;;7.70;99.90;;;;;;5035028;28;20029;-73
2023/11/09 01:23:40;;;;;;;1.38;1.10;;;7.60;99.90;;;;;;5035043;28;20029;-74
2023/11/09 01:26:07;;;;;;;0.43;0.40;;;7.60;99.90;;;;;;5049148;28;20032;-73
2023/11/09 01:28:33;;;;;;;0.73;0.57;;;7.50;99.90;;;;;;5040657;28;20037;-73
2023/11/09 01:30:58;;;;;;;5.78;2.03;;;7.50;99.90;;;;;;5031497;28;20029;-73
2023/11/09 01:33:24;;;;;;;2.70;0.80;;;7.40;99.90;;;;;;5030899;28;20041;-73
2023/11/09 01:35:50;;;;;;;0.50;0.50;;;7.40;99.90;;;;;;5051450;28;20029;-74
2023/11/09 01:38:16;;;;;;;1.33;0.98;;;7.40;99.90;;;;;;5052663;28;20060;-73
2023/11/09 01:40:42;;;;;;;1.67;0.90;;;7.40;99.90;;;;;;5034594;28;20033;-73
2023/11/09 01:43:14;;;;;;;2.35;0.85;;;7.40;99.90;;;;;;5035438;28;20021;-74
2023/11/09 01:45:41;;;;;;;0.55;0.38;;;7.40;99.90;;;;;;5034622;28;20029;-76
2023/11/09 01:48:07;;;;;;;5.90;1.50;;;7.30;99.90;;;;;;5035505;28;20037;-74
2023/11/09 01:50:34;;;;;;;1.67;0.57;;;7.30;99.90;;;;;;5033702;28;20067;-74
2023/11/09 01:53:00;;;;;;;1.08;0.85;;;7.30;99.90;;;;;;5035267;28;20035;-75
2023/11/09 01:55:29;;;;;;;4.18;1.00;;;7.40;99.90;;;;;;5051890;28;20397;-76
2023/11/09 01:57:55;;;;;;;3.40;1.10;;;7.50;99.90;;;;;;5034526;28;20416;-76
2023/11/09 02:00:22;;;;;;;0.73;0.73;;;7.60;99.90;;;;;;5051902;28;20048;-73
2023/11/09 02:02:52;;;;;;;0.43;0.43;;;7.80;99.90;;;;;;5034885;28;20028;-74
2023/11/09 02:05:18;;;;;;;0.28;0.28;;;7.90;99.90;;;;;;5030204;28;20037;-74
2023/11/09 02:07:44;;;;;;;5.90;1.52;;;8.00;99.90;;;;;;5025784;28;20029;-75
2023/11/09 02:10:11;;;;;;;0.57;0.57;;;8.00;99.90;;;;;;5025315;28;20025;-74
2023/11/09 02:12:37;;;;;;;1.15;0.68;;;8.10;99.90;;;;;;5035234;28;20033;-74
2023/11/09 02:15:04;;;;;;;0.65;0.47;;;8.20;99.90;;;;;;5027461;28;20028;-75
2023/11/09 02:17:31;;;;;;;0.77;0.52;;;8.30;99.90;;;;;;5031994;28;20033;-76
2023/11/09 02:19:57;;;;;;;0.77;0.65;;;8.30;99.90;;;;;;5022596;28;20040;-75
2023/11/09 02:22:27;;;;;;;0.38;0.35;;;8.30;99.90;;;;;;5033255;28;20025;-74
2023/11/09 02:24:57;;;;;;;1.75;0.80;;;8.30;99.90;;;;;;5035291;28;20034;-73
2023/11/09 02:27:23;;;;;;;4.82;1.02;;;8.30;99.90;;;;;;5034820;28;20052;-75
2023/11/09 02:29:48;;;;;;;1.42;0.93;;;8.40;99.90;;;;;;5031151;28;20490;-75
2023/11/09 02:32:14;;;;;;;2.60;1.67;;;8.30;99.90;;;;;;5045332;28;20037;-75
2023/11/09 02:34:40;;;;;;;1.10;0.93;;;8.30;99.90;;;;;;5034451;28;20033;-76
2023/11/09 02:37:07;;;;;;;0.77;0.68;;;8.20;99.90;;;;;;5039486;28;20498;-74
2023/11/09 02:39:34;;;;;;;1.20;0.75;;;8.20;99.90;;;;;;5030824;28;20120;-75
2023/11/09 02:42:05;;;;;;;3.00;0.50;;;8.10;99.90;;;;;;5026830;28;20109;-75
2023/11/09 02:44:30;;;;;;;2.22;1.48;;;8.00;99.90;;;;;;5006061;28;20059;-73
2023/11/09 02:46:57;;;;;;;1.15;0.57;;;7.90;99.90;;;;;;5030247;28;20100;-74
2023/11/09 02:49:23;;;;;;;1.25;0.90;;;7.90;99.90;;;;;;5018488;28;20033;-74
2023/11/09 02:51:49;;;;;;;1.05;0.95;;;8.00;99.90;;;;;;5017217;28;20556;-72
2023/11/09 02:54:15;;;;;;;3.08;0.77;;;7.90;99.90;;;;;;5028120;28;20150;-75
2023/11/09 02:56:41;;;;;;;1.90;0.80;;;7.90;99.90;;;;;;5018473;28;20083;-75
2023/11/09 02:59:06;;;;;;;7.63;0.60;;;7.90;99.90;;;;;;5031674;28;20029;-75
2023/11/09 03:01:32;;;;;;;0.50;0.40;;;7.90;99.90;;;;;;5034228;28;20041;-75
2023/11/09 03:03:58;;;;;;;1.40;0.95;;;7.90;99.90;;;;;;5039949;28;20021;-75
2023/11/09 03:06:24;;;;;;;1.33;1.17;;;7.90;99.90;;;;;;5034000;28;20029;-75
2023/11/09 03:08:50;;;;;;;0.73;0.40;;;7.90;99.90;;;;;;5029190;28;20037;-74
2023/11/09 03:11:20;;;;;;;2.63;1.27;;;8.00;99.90;;;;;;5038782;28;20034;-72
2023/11/09 03:13:46;;;;;;;0.93;0.45;;;7.90;99.90;;;;;;5030328;28;20036;-74
2023/11/09 03:16:13;;;;;;;1.15;0.38;;;7.90;99.90;;;;;;5031813;28;20021;-73
2023/11/09 03:18:41;;;;;;;1.38;0.70;;;7.90;99.90;;;;;;5033517;28;20028;-74
2023/11/09 03:21:10;;;;;;;0.65;0.30;;;7.90;99.90;;;;;;5020156;28;20030;-73
2023/11/09 03:23:37;;;;;;;1.08;0.88;;;7.80;99.90;;;;;;5001416;28;20056;-72
2023/11/09 03:26:04;;;;;;;2.63;0.77;;;7.80;99.90;;;;;;5014652;28;20382;-74
2023/11/09 03:28:31;;;;;;;4.25;1.17;;;7.80;99.90;;;;;;5012847;28;20029;-74
2023/11/09 03:30:59;;;;;;;1.75;0.65;;;7.70;99.90;;;;;;5021855;28;20049;-75
2023/11/09 03:33:24;;;;;;;1.38;1.27;;;7.70;99.90;;;;;;5029595;28;20033;-73
2023/11/09 03:35:50;;;;;;;0.75;0.63;;;7.70;99.90;;;;;;5014420;28;20082;-73
2023/11/09 03:38:16;;;;;;;2.05;0.95;;;7.70;99.90;;;;;;5044016;28;20032;-74
2023/11/09 03:40:42;;;;;;;0.77;0.70;;;7.70;99.90;;;;;;5032411;28;20061;-75
2023/11/09 03:43:07;;;;;;;0.52;0.45;;;7.70;99.90;;;;;;5034871;28;20044;-74
2023/11/09 03:45:33;;;;;;;1.52;0.75;;;7.60;99.90;;;;;;5025026;28;20140;-73
2023/11/09 03:47:59;;;;;;;1.40;0.70;;;7.70;99.90;;;;;;5033386;28;20047;-75
2023/11/09 03:50:24;;;;;;;0.40;0.40;;;7.70;99.90;;;;;;5051406;28;20068;-72
2023/11/09 03:52:50;;;;;;;0.10;0.10;;;7.70;99.90;;;;;;5016040;28;20034;-75
2023/11/09 03:55:16;;;;;;;0.30;0.30;;;7.70;99.90;;;;;;5016923;28;20032;-73
2023/11/09 03:57:43;;;;;;;1.40;0.40;;;7.70;99.90;;;;;;5021649;28;20064;-72
2023/11/09 04:00:13;;;;;;;0.63;0.45;;;7.70;99.90;;;;;;5034347;28;20054;-72
2023/11/09 04:02:42;;;;;;;0.95;0.77;;;7.70;99.90;;;;;;5027160;28;20057;-74
2023/11/09 04:05:09;;;;;;;0.30;0.30;;;7.70;99.90;;;;;;5045114;28;20037;-72
2023/11/09 04:07:41;;;;;;;1.48;1.05;;;7.80;99.90;;;;;;5049058;28;20445;-72
2023/11/09 04:10:09;;;;;;;1.35;0.45;;;7.80;99.90;;;;;;5013764;28;20033;-73
2023/11/09 04:12:36;;;;;;;3.85;1.08;;;7.80;99.90;;;;;;5029397;28;20043;-72
2023/11/09 04:15:04;;;;;;;0.20;0.20;;;7.90;99.90;;;;;;5027830;28;20025;-74
2023/11/09 04:17:32;;;;;;;1.80;0.95;;;7.90;99.90;;;;;;5040336;28;20611;-75
2023/11/09 04:19:59;;;;;;;1.05;0.68;;;7.90;99.90;;;;;;5038050;28;20037;-75
2023/11/09 04:22:25;;;;;;;1.67;0.60;;;7.90;99.90;;;;;;5012528;28;20033;-74
2023/11/09 04:24:52;;;;;;;1.45;1.35;;;7.90;99.90;;;;;;5050910;28;20482;-71
2023/11/09 04:27:18;;;;;;;0.88;0.50;;;7.90;99.90;;;;;;5011232;28;20037;-74
2023/11/09 04:29:44;;;;;;;1.17;0.75;;;7.90;99.90;;;;;;5052791;28;20033;-74
2023/11/09 04:32:10;;;;;;;0.40;0.35;;;7.90;99.90;;;;;;5018933;28;20025;-72
2023/11/09 04:34:36;;;;;;;0.55;0.50;;;7.90;99.90;;;;;;5024228;28;20040;-73
2023/11/09 04:37:03;;;;;;;1.08;0.55;;;7.90;99.90;;;;;;5040471;28;20028;-74
2023/11/09 04:39:31;;;;;;;3.33;0.93;;;7.90;99.90;;;;;;5051630;28;20033;-74
2023/11/09 04:41:58;;;;;;;0.93;0.47;;;7.90;99.90;;;;;;5045887;28;20084;-72
2023/11/09 04:44:26;;;;;;;2.50;0.80;;;7.80;99.90;;;;;;5013463;28;20499;-73
2023/11/09 04:46:55;;;;;;;1.73;1.17;;;7.90;99.90;;;;;;5019313;28;20033;-72
2023/11/09 04:49:22;;;;;;;1.08;0.75;;;7.90;99.90;;;;;;5013875;28;20044;-74
2023/11/09 04:51:50;;;;;;;1.48;0.65;;;7.90;99.90;;;;;;5017674;28;20037;-71
2023/11/09 04:54:24;;;;;;;1.98;1.20;;;7.80;99.90;;;;;;5028093;28;20427;-72
2023/11/09 05:07:30;;;;;;;0.20;0.20;;;7.80;99.90;;;;;;5032337;28;20022;-72
2023/11/09 05:09:57;;;;;;;0.43;0.25;;;7.70;99.90;;;;;;5035956;28;20496;-72
2023/11/09 05:12:24;;;;;;;0.90;0.63;;;7.80;99.90;;;;;;5028592;28;20179;-72
2023/11/09 05:14:51;;;;;;;0.73;0.45;;;7.80;99.90;;;;;;5029532;28;20032;-72
2023/11/09 05:17:17;;;;;;;2.10;0.60;;;7.80;99.90;;;;;;5035498;28;20024;-74
2023/11/09 05:19:44;;;;;;;0.95;0.55;;;7.90;99.90;;;;;;5032585;28;20038;-75
2023/11/09 05:22:10;;;;;;;1.40;0.75;;;7.90;99.90;;;;;;5035330;28;20366;-72
2023/11/09 05:24:42;;;;;;;0.60;0.57;;;7.90;99.90;;;;;;5008210;28;20450;-74
2023/11/09 05:27:09;;;;;;;6.63;0.57;;;7.90;99.90;;;;;;5035697;28;20056;-73
2023/11/09 05:29:36;;;;;;;0.77;0.75;;;7.90;99.90;;;;;;5026757;28;20189;-73
2023/11/09 05:32:14;;;;;;;0.63;0.45;;;7.80;99.90;;;;;;5024429;28;20111;-73
2023/11/09 05:34:40;;;;;;;0.50;0.50;;;7.80;99.90;;;;;;5009693;28;20445;-73
2023/11/09 05:37:06;;;;;;;0.73;0.55;;;7.90;99.90;;;;;;5026111;28;20458;-73
2023/11/09 05:39:33;;;;;;;0.55;0.43;;;7.90;99.90;;;;;;5023285;28;20136;-74
2023/11/09 05:41:59;;;;;;;0.85;0.68;;;7.90;99.90;;;;;;5035190;23;20045;-68
2023/11/09 05:44:29;;;;;;;0.45;0.45;;;7.90;99.90;;;;;;5026860;28;20029;-67
2023/11/09 05:46:55;;;;;;;2.85;1.65;;;7.90;99.90;;;;;;5029320;28;21621;-68
2023/11/09 05:49:25;;;;;;;0.17;0.17;;;7.90;99.90;;;;;;5033339;28;20116;-68
2023/11/09 05:51:51;;;;;;;1.33;1.02;;;7.90;99.90;;;;;;5011403;28;20033;-67
2023/11/09 05:54:17;;;;;;;0.60;0.60;;;7.90;99.90;;;;;;5028847;28;20631;-67
2023/11/09 05:56:43;;;;;;;1.02;0.93;;;7.90;99.90;;;;;;5028779;28;20057;-67
2023/11/09 05:59:09;;;;;;;0.95;0.82;;;7.90;99.90;;;;;;5031192;28;20512;-67
2023/11/09 06:01:37;;;;;;;0.60;0.60;;;7.90;99.90;;;;;;5029697;28;20109;-67
2023/11/09 06:04:03;;;;;;;1.15;0.73;;;7.90;99.90;;;;;;5030835;28;20525;-66
2023/11/09 06:06:32;;;;;;;0.63;0.47;;;7.90;99.90;;;;;;5029946;28;20039;-66
2023/11/09 06:08:59;;;;;;;0.45;0.45;;;7.90;99.90;;;;;;5027760;28;20029;-67
2023/11/09 06:11:25;;;;;;;2.63;0.70;;;7.90;99.90;;;;;;5033034;28;20535;-67
2023/11/09 06:13:54;;;;;;;0.60;0.43;;;7.90;99.90;;;;;;5031265;28;20380;-67
2023/11/09 06:16:20;;;;;;;0.65;0.25;;;7.90;99.90;;;;;;5014784;28;20371;-67
2023/11/09 06:18:46;;;;;;;3.13;0.70;;;8.00;99.90;;;;;;5031167;28;20040;-68
2023/11/09 06:21:12;;;;;;;1.00;0.85;;;8.00;99.90;;;;;;5031436;28;20041;-67
2023/11/09 06:23:37;;;;;;;0.68;0.68;;;8.10;99.90;;;;;;5030474;28;20099;-68
2023/11/09 06:26:05;;;;;;;1.50;0.50;;;8.00;99.90;;;;;;5031503;28;20444;-68
2023/11/09 06:28:31;;;;;;;2.38;0.60;;;8.00;99.90;;;;;;5025641;28;20029;-66
2023/11/09 06:30:58;;;;;;;0.35;0.30;;;8.00;99.90;;;;;;5013583;28;20095;-66
2023/11/09 06:33:23;;;;;;;1.20;0.50;;;8.00;99.90;;;;;;5029953;28;20040;-67
2023/11/09 06:35:49;;;;;;;0.93;0.68;;;8.10;99.90;;;;;;5030619;28;20033;-67
2023/11/09 06:38:19;;;;;;;1.30;0.75;;;8.10;99.90;;;;;;5012936;28;20072;-67
2023/11/09 06:40:46;;;;;;;0.63;0.40;;;8.10;99.90;;;;;;5013471;28;20093;-67
2023/11/09 06:43:13;;;;;;;0.82;0.82;;;8.00;99.90;;;;;;5013117;28;20025;-67
2023/11/09 06:45:39;;;;;;;0.20;0.20;;;8.00;99.90;;;;;;5013222;28;20474;-67
2023/11/09 06:48:05;;;;;;;1.05;0.88;;;8.00;99.90;;;;;;5030364;28;20048;-67
2023/11/09 06:50:32;;;;;;;1.50;0.73;;;8.00;99.90;;;;;;5031544;28;20037;-67
2023/11/09 06:52:58;;;;;;;1.88;1.00;;;8.00;99.90;;;;;;5029320;28;20087;-72
2023/11/09 06:55:24;;;;;;;3.50;0.85;;;7.90;99.90;;;;;;5030993;28;20068;-65
2023/11/09 06:57:54;;;;;;;1.38;1.08;;;7.90;99.90;;;;;;5029345;28;20061;-65
2023/11/09 07:00:24;;;;;;;0.40;0.40;;;7.90;99.90;;;;;;5031233;28;20033;-65
2023/11/09 07:02:51;;;;;;;1.55;1.02;;;7.80;99.90;;;;;;5030860;28;20032;-66
2023/11/09 07:05:17;;;;;;;2.85;1.42;;;7.90;99.90;;;;;;5013532;28;20108;-65
2023/11/09 07:07:43;;;;;;;1.30;0.55;;;7.90;99.90;;;;;;5029623;28;20036;-65
2023/11/09 07:10:09;;;;;;;1.60;1.30;;;7.80;99.90;;;;;;5031005;28;20025;-66
2023/11/09 07:12:39;;;;;;;1.13;0.90;;;7.90;99.90;;;;;;5033194;28;20104;-65
2023/11/09 07:15:07;;;;;;;1.65;1.00;;;7.90;99.90;;;;;;5030943;28;20042;-65
2023/11/09 07:17:33;;;;;;;2.22;1.33;;;7.90;99.90;;;;;;5029465;28;20072;-65
2023/11/09 07:20:00;;;;;;;1.25;0.73;;;7.90;99.90;;;;;;5031139;28;20033;-65
2023/11/09 07:22:26;;;;;;;1.42;0.77;;;7.90;99.90;;;;;;5030485;28;20067;-73
2023/11/09 07:24:56;;;;;;;0.90;0.57;;;7.80;99.90;;;;;;5030179;28;20138;-74
2023/11/09 07:27:23;;;;;;;3.17;0.63;;;7.90;99.90;;;;;;5018921;28;20581;-71
2023/11/09 07:29:50;;;;;;;1.83;0.70;;;7.90;99.90;;;;;;5031570;28;20067;-72
2023/11/09 07:32:16;;;;;;;1.27;0.75;;;7.90;99.90;;;;;;5018088;28;20183;-69
2023/11/09 07:34:43;;;;;;;1.27;0.60;;;7.90;99.90;;;;;;5031542;28;20026;-70
2023/11/09 07:37:13;;;;;;;1.05;0.90;;;7.90;99.90;;;;;;5030399;28;20029;-70
2023/11/09 07:39:40;;;;;;;2.53;0.70;;;7.80;99.90;;;;;;5037128;28;20017;-70
2023/11/09 07:42:06;;;;;;;2.03;0.40;;;7.80;99.90;;;;;;5013413;28;20033;-70
2023/11/09 07:44:33;;;;;;;1.30;0.90;;;7.80;99.90;;;;;;5028350;28;20125;-72
2023/11/09 07:46:59;;;;;;;1.58;1.08;;;7.90;99.90;;;;;;5011153;28;20470;-65
2023/11/09 07:49:29;;;;;;;16.88;0.93;;;7.90;99.90;;;;;;5029343;28;20159;-65
2023/11/09 07:51:55;;;;;;;3.25;0.80;;;7.80;99.90;;;;;;5024413;28;20030;-72
2023/11/09 07:54:21;;;;;;;1.25;1.10;;;7.80;99.90;;;;;;5022704;28;20505;-65
2023/11/09 07:56:50;;;;;;;1.20;0.88;;;7.80;99.90;;;;;;5023207;28;20057;-66
2023/11/09 07:59:16;;;;;;;2.55;1.23;;;7.80;99.90;;;;;;5008376;28;20524;-64
2023/11/09 08:01:43;;;;;;;0.98;0.93;;;7.90;99.90;;;;;;5030661;28;20037;-65
2023/11/09 08:04:09;;;;;;;2.22;0.93;;;7.90;99.90;;;;;;5014218;28;20124;-65
2023/11/09 08:06:37;;;;;;;1.63;0.95;;;7.90;99.90;;;;;;5031016;28;20372;-66
2023/11/09 08:09:09;;;;;;;5.18;1.33;;;7.90;99.90;;;;;;5025947;28;20488;-66
2023/11/09 08:11:35;;;;;;;;;;;7.90;99.90;;;;;;5030262;28;20122;-65
2023/11/09 08:14:01;;;;;;;2.30;0.80;;;7.90;99.90;;;;;;5035591;28;19909;-64
2023/11/09 08:16:27;;;;;;;3.00;1.17;;;8.00;99.90;;;;;;5029358;28;20465;-66
2023/11/09 08:18:55;;;;;;;2.20;0.90;;;8.00;99.90;;;;;;5022483;28;20067;-65
2023/11/09 08:21:22;;;;;;;1.25;0.93;;;8.00;99.90;;;;;;5025672;28;20044;-65
2023/11/09 08:23:48;;;;;;;2.88;1.95;;;7.90;99.90;;;;;;5013904;28;20037;-64
2023/11/09 08:26:14;;;;;;;0.50;0.45;;;8.00;99.90;;;;;;5028484;28;20040;-65
2023/11/09 08:28:40;;;;;;;4.57;0.70;;;8.00;99.90;;;;;;5038397;28;20033;-66
2023/11/09 08:31:08;;;;;;;0.82;0.50;;;8.00;99.90;;;;;;5030312;28;20079;-65
2023/11/09 08:33:37;;;;;;;4.05;1.83;;;8.00;99.90;;;;;;5035887;28;20053;-65
2023/11/09 08:36:04;;;;;;;3.33;1.13;;;8.00;99.90;;;;;;5026795;28;20034;-65
2023/11/09 08:38:33;;;;;;;0.93;0.73;;;8.10;99.90;;;;;;5033478;28;20017;-65
2023/11/09 08:41:05;;;;;;;1.65;1.40;;;8.10;99.90;;;;;;5034872;28;20030;-65
2023/11/09 08:43:36;;;;;;;0.88;0.65;;;8.10;99.90;;;;;;5032414;28;20057;-65
2023/11/09 08:46:05;;;;;;;1.90;0.90;;;8.10;99.90;;;;;;5028243;28;20083;-65
2023/11/09 08:48:31;;;;;;;1.45;0.70;;;8.10;99.90;;;;;;5040254;28;20052;-65
2023/11/09 08:51:00;;;;;;;1.60;0.68;;;8.10;99.90;;;;;;5037678;28;20039;-65
2023/11/09 08:53:32;;;;;;;0.52;0.45;;;8.10;99.90;;;;;;5029898;28;20037;-65
2023/11/09 08:56:00;;;;;;;1.80;0.88;;;8.10;99.90;;;;;;5027346;28;20116;-65
2023/11/09 08:58:27;;;;;;;0.75;0.75;;;8.10;99.90;;;;;;5032758;28;20037;-65
2023/11/09 09:00:54;;;;;;;0.57;0.57;;;8.10;99.90;;;;;;5032362;28;20033;-65
2023/11/09 09:03:23;;;;;;;1.27;1.02;;;8.20;99.90;;;;;;5034085;28;20033;-65
2023/11/09 09:05:52;;;;;;;0.30;0.30;;;8.20;99.90;;;;;;5039629;28;20031;-66
2023/11/09 09:08:18;;;;;;;1.05;0.68;;;8.20;99.90;;;;;;5037102;28;20029;-65
2023/11/09 09:10:44;;;;;;;5.13;1.05;;;8.30;99.90;;;;;;5038223;28;20029;-65
2023/11/09 09:13:10;;;;;;;3.47;1.02;;;8.30;99.90;;;;;;5036508;28;20028;-65
2023/11/09 09:15:35;;;;;;;0.70;0.68;;;8.30;99.90;;;;;;5032321;28;20558;-65
2023/11/09 09:18:02;;;;;;;2.38;0.85;;;8.30;99.90;;;;;;5033081;28;20044;-65
2023/11/09 09:20:28;;;;;;;0.65;0.52;;;8.30;99.90;;;;;;5034070;28;20044;-65
2023/11/09 09:22:59;;;;;;;1.15;0.77;;;8.30;99.90;;;;;;5028360;28;20119;-65
2023/11/09 09:25:25;;;;;;;1.55;1.05;;;8.20;99.90;;;;;;5036077;28;20148;-65
2023/11/09 09:27:51;;;;;;;6.72;0.88;;;8.20;99.90;;;;;;5034015;28;20104;-66
2023/11/09 09:30:22;;;;;;;4.07;0.90;;;8.10;99.90;;;;;;5031031;28;20033;-66
2023/11/09 09:32:53;;;;;;;1.30;0.98;;;8.10;99.90;;;;;;5037983;28;20036;-66
2023/11/09 09:35:20;;;;;;;1.20;0.63;;;8.10;99.90;;;;;;4998170;28;20598;-65
2023/11/09 09:37:47;;;;;;;1.38;1.08;;;8.10;99.90;;;;;;5032161;28;20030;-65
2023/11/09 09:40:19;;;;;;;0.25;0.25;;;8.10;99.90;;;;;;5010659;28;20040;-66
2023/11/09 09:42:49;;;;;;;4.13;1.30;;;8.20;99.90;;;;;;5029679;28;20434;-66
2023/11/09 09:45:27;;;;;;;2.92;0.95;;;8.20;99.90;;;;;;5013499;28;20037;-66
2023/11/09 09:47:57;;;;;;;1.17;0.77;;;8.30;99.90;;;;;;5017300;28;20026;-66
2023/11/09 09:50:33;;;;;;;2.15;0.98;;;8.30;99.90;;;;;;5037341;28;20529;-66
2023/11/09 09:52:59;;;;;;;2.17;1.10;;;8.40;99.90;;;;;;5029969;28;20552;-66
2023/11/09 09:55:27;;;;;;;0.45;0.45;;;8.50;99.90;;;;;;5018560;28;20049;-66
2023/11/09 09:57:59;;;;;;;0.50;0.50;;;8.60;99.90;;;;;;5018799;28;20481;-66
2023/11/09 10:00:28;;;;;;;0.43;0.32;;;8.80;99.90;;;;;;5015900;28;20088;-66
2023/11/09 10:02:59;;;;;;;1.27;0.70;;;8.90;99.90;;;;;;5019754;28;20025;-66
2023/11/09 10:05:27;;;;;;;;;;;8.90;99.90;;;;;;5029473;28;20030;-66
2023/11/09 10:08:13;;;;;;;0.30;0.30;;;9.00;99.90;;;;;;5032968;28;20281;-66
2023/11/09 10:10:52;;;;;;;4.68;1.13;;;8.90;99.90;;;;;;5034743;28;20031;-66
2023/11/09 10:13:23;;;;;;;0.52;0.43;;;9.00;99.90;;;;;;5029944;28;20017;-66
2023/11/09 10:15:57;;;;;;;0.20;0.20;;;9.00;99.90;;;;;;5028979;28;20068;-66
2023/11/09 10:18:31;;;;;;;4.93;1.15;;;9.10;99.90;;;;;;5029200;28;20112;-66
2023/11/09 10:21:01;;;;;;;5.03;0.70;;;9.00;99.90;;;;;;5042477;28;20024;-66
2023/11/09 10:23:27;;;;;;;0.95;0.82;;;9.10;99.90;;;;;;5044027;28;20060;-66
2023/11/09 10:25:58;;;;;;;1.48;0.70;;;9.10;99.90;;;;;;5034141;28;20029;-66
2023/11/09 10:28:28;;;;;;;0.52;0.47;;;9.10;99.90;;;;;;5040771;28;20103;-66
2023/11/09 10:30:55;;;;;;;0.57;0.53;;;9.10;99.90;;;;;;5037855;28;20396;-66
2023/11/09 10:33:23;;;;;;;0.68;0.47;;;9.20;99.90;;;;;;5021422;28;20327;-66
2023/11/09 10:35:49;;;;;;;1.13;0.80;;;9.00;99.90;;;;;;5026427;28;20032;-66
2023/11/09 10:38:20;;;;;;;1.60;1.13;;;9.00;99.90;;;;;;5029251;28;20076;-66
2023/11/09 10:40:47;;;;;;;1.20;0.67;;;9.10;99.90;;;;;;5032380;28;20045;-69
2023/11/09 10:43:14;;;;;;;0.70;0.60;;;9.00;99.90;;;;;;5018801;28;20063;-69
2023/11/09 10:45:45;;;;;;;1.05;0.65;;;9.10;99.90;;;;;;5034733;28;20420;-70
2023/11/09 10:48:18;;;;;;;1.20;0.60;;;9.00;99.90;;;;;;4998177;28;20033;-67
2023/11/09 10:50:48;;;;;;;0.52;0.52;;;9.10;99.90;;;;;;5009825;28;20065;-65
2023/11/09 10:53:19;;;;;;;0.95;0.55;;;9.20;99.90;;;;;;5027333;28;20040;-65
2023/11/09 10:55:49;;;;;;;;;;;9.20;99.90;;;;;;5029584;28;20037;-64
2023/11/09 10:58:20;;;;;;;0.55;0.43;;;9.40;99.90;;;;;;5029005;28;19909;-66
2023/11/09 11:01:00;;;;;;;;;;;9.40;99.90;;;;;;5032395;28;20036;-65
2023/11/09 11:03:38;;;;;;;3.50;0.52;;;9.40;99.90;;;;;;5012943;28;19917;-65
2023/11/09 11:06:16;;;;;;;18.13;0.70;;;9.40;99.90;;;;;;5029356;28;20024;-65
2023/11/09 11:08:44;;;;;;;1.55;1.08;;;9.40;99.90;;;;;;5027857;28;20033;-65
2023/11/09 11:11:24;;;;;;;0.20;0.20;;;9.40;99.90;;;;;;5017695;28;20112;-66
2023/11/09 11:13:57;;;;;;;0.30;0.20;;;9.40;99.90;;;;;;5029673;28;20116;-66
2023/11/09 11:16:41;;;;;;;1.23;0.85;;;9.50;99.90;;;;;;5012585;28;20057;-66
2023/11/09 11:19:22;;;;;;;5.90;0.38;;;9.60;99.90;;;;;;5026586;28;20095;-66
2023/11/09 11:22:12;;;;;;;1.55;1.13;;;9.70;99.90;;;;;;5029384;28;20037;-66
2023/11/09 11:25:34;;;;;;;0.47;0.45;;;9.90;99.90;;;;;;5027131;28;20128;-66
2023/11/09 11:28:02;;;;;;;1.75;0.38;;;10.00;99.90;;;;;;5029439;28;20494;-66
2023/11/09 11:30:41;;;;;;;1.05;0.57;;;10.20;99.90;;;;;;5036679;28;20038;-67
2023/11/09 11:33:14;;;;;;;0.80;0.45;;;10.10;99.90;;;;;;5038891;28;20033;-67
2023/11/09 11:35:49;;;;;;;0.47;0.43;;;10.20;99.90;;;;;;5040132;28;20141;-66
2023/11/09 11:38:15;;;;;;;1.40;0.63;;;10.10;99.90;;;;;;5012068;28;20053;-66
2023/11/09 11:40:46;;;;;;;0.47;0.47;;;10.10;99.90;;;;;;5029740;28;20445;-66
2023/11/09 11:43:13;;;;;;;1.45;0.65;;;10.10;99.90;;;;;;5019244;28;20024;-65
2023/11/09 11:45:40;;;;;;;1.10;0.73;;;10.10;99.90;;;;;;5015715;28;20033;-67
2023/11/09 11:48:19;;;;;;;1.25;0.77;;;10.20;99.90;;;;;;5024091;28;20032;-67
2023/11/09 11:50:49;;;;;;;0.38;0.38;;;10.10;99.90;;;;;;5015591;28;20098;-67
2023/11/09 11:53:24;;;;;;;0.65;0.50;;;10.20;99.90;;;;;;5036471;28;20036;-67
2023/11/09 11:56:02;;;;;;;2.08;0.77;;;10.10;99.90;;;;;;5022629;28;20056;-66
2023/11/09 11:58:55;;;;;;;0.55;0.50;;;10.20;99.90;;;;;;5036380;28;20044;-67
2023/11/09 12:01:23;;;;;;;0.50;0.50;;;10.10;99.90;;;;;;5032756;28;20346;-67
2023/11/09 12:03:53;;;;;;;1.42;0.60;;;10.10;99.90;;;;;;5016116;28;20099;-67
2023/11/09 12:06:24;;;;;;;0.77;0.65;;;10.10;99.90;;;;;;5030111;28;20109;-67
2023/11/09 12:09:02;;;;;;;1.35;1.08;;;10.10;99.90;;;;;;5012901;28;20048;-68
2023/11/09 12:11:38;;;;;;;3.50;0.80;;;10.10;99.90;;;;;;5032804;28;20071;-67
2023/11/09 12:14:08;;;;;;;1.08;0.75;;;10.10;99.90;;;;;;5023252;28;20063;-66
2023/11/09 12:16:41;;;;;;;2.17;1.17;;;10.20;99.90;;;;;;5012476;28;20088;-66
2023/11/09 12:19:11;;;;;;;5.55;0.80;;;10.20;99.90;;;;;;5015300;28;20030;-68
2023/11/09 12:21:37;;;;;;;2.63;1.48;;;10.10;99.90;;;;;;5018373;28;20049;-68
2023/11/09 12:24:05;;;;;;;10.65;1.42;;;10.10;99.90;;;;;;5034369;28;20025;-67
2023/11/09 12:26:34;;;;;;;1.17;0.95;;;10.20;99.90;;;;;;5036664;28;20025;-69
2023/11/09 12:29:00;;;;;;;0.75;0.40;;;10.20;99.90;;;;;;5041547;28;20037;-67
2023/11/09 12:31:29;;;;;;;0.52;0.47;;;10.20;99.90;;;;;;5001852;28;20076;-67
2023/11/09 12:34:14;;;;;;;3.80;1.15;;;10.20;99.90;;;;;;5031721;28;20470;-68
2023/11/09 12:36:43;;;;;;;0.50;0.40;;;10.20;99.90;;;;;;5043874;28;20064;-67
2023/11/09 12:39:28;;;;;;;2.08;1.15;;;10.20;99.90;;;;;;5030929;28;20029;-67
2023/11/09 12:41:56;;;;;;;0.70;0.55;;;10.20;99.90;;;;;;5020382;28;20029;-67
2023/11/09 12:44:24;;;;;;;2.75;0.85;;;10.30;99.90;;;;;;5026602;28;20033;-66
2023/11/09 12:47:20;;;;;;;2.63;1.10;;;10.50;99.90;;;;;;5032779;28;20547;-67
2023/11/09 12:49:48;;;;;;;0.85;0.68;;;10.60;99.90;;;;;;5012970;28;20099;-66
2023/11/09 12:52:17;;;;;;;1.55;0.88;;;10.90;99.90;;;;;;5033313;28;20053;-65
2023/11/09 12:54:45;;;;;;;1.05;0.57;;;11.00;99.90;;;;;;5030159;28;20128;-65
2023/11/09 12:57:11;;;;;;;1.95;0.47;;;11.20;99.90;;;;;;5020410;28;20454;-65
2023/11/09 12:59:45;;;;;;;0.65;0.52;;;11.50;99.90;;;;;;5028563;28;20064;-65
2023/11/09 13:02:15;;;;;;;3.28;1.75;;;11.90;99.90;;;;;;5017718;28;20112;-66
2023/11/09 13:04:42;;;;;;;0.50;0.33;;;12.00;99.90;;;;;;5025217;28;20036;-65
2023/11/09 13:07:13;;;;;;;1.23;0.90;;;11.90;99.90;;;;;;5019872;28;20112;-66
2023/11/09 13:09:47;;;;;;;1.35;1.13;;;11.90;99.90;;;;;;5018711;28;20378;-65
2023/11/09 13:12:29;;;;;;;2.40;1.33;;;11.70;99.90;;;;;;5018328;28;20041;-66
2023/11/09 13:17:48;;;;;;;1.40;0.73;;;11.60;99.90;;;;;;5039583;28;20440;-66